sensor_id;sensor_type;location;lat;lon;timestamp;temperature;humidity
66053;HTU21D;52833;45.112;39.556;2022-08-14T00:00:29;22.73;58.71
66053;HTU21D;52833;45.112;39.556;2022-08-14T00:02:56;22.73;58.71
66053;HTU21D;52833;45.112;39.556;2022-08-14T00:05:22;22.72;58.71
66053;HTU21D;52833;45.112;39.556;2022-08-14T00:07:49;22.71;58.72
66053;HTU21D;52833;45.112;39.556;2022-08-14T00:10:19;22.70;58.74
66053;HTU21D;52833;45.112;39.556;2022-08-14T00:12:52;22.71;58.72
66053;HTU21D;52833;45.112;39.556;2022-08-14T00:15:26;22.70;58.70
66053;HTU21D;52833;45.112;39.556;2022-08-14T00:17:54;22.70;58.69
66053;HTU21D;52833;45.112;39.556;2022-08-14T00:20:27;22.69;58.70
66053;HTU21D;52833;45.112;39.556;2022-08-14T00:22:54;22.69;58.73
66053;HTU21D;52833;45.112;39.556;2022-08-14T00:25:20;22.68;58.77
66053;HTU21D;52833;45.112;39.556;2022-08-14T00:27:47;22.67;58.83
66053;HTU21D;52833;45.112;39.556;2022-08-14T00:30:14;22.65;58.83
66053;HTU21D;52833;45.112;39.556;2022-08-14T00:32:42;22.63;58.90
66053;HTU21D;52833;45.112;39.556;2022-08-14T00:35:10;22.61;58.97
66053;HTU21D;52833;45.112;39.556;2022-08-14T00:37:38;22.60;59.00
66053;HTU21D;52833;45.112;39.556;2022-08-14T00:40:07;22.56;59.05
66053;HTU21D;52833;45.112;39.556;2022-08-14T00:42:35;22.55;59.09
66053;HTU21D;52833;45.112;39.556;2022-08-14T00:45:02;22.53;59.15
66053;HTU21D;52833;45.112;39.556;2022-08-14T00:47:29;22.53;59.20
66053;HTU21D;52833;45.112;39.556;2022-08-14T00:49:56;22.51;59.24
66053;HTU21D;52833;45.112;39.556;2022-08-14T00:52:24;22.50;59.30
66053;HTU21D;52833;45.112;39.556;2022-08-14T00:54:51;22.48;59.32
66053;HTU21D;52833;45.112;39.556;2022-08-14T00:57:24;22.48;59.36
66053;HTU21D;52833;45.112;39.556;2022-08-14T00:59:51;22.46;59.44
66053;HTU21D;52833;45.112;39.556;2022-08-14T01:02:19;22.43;59.54
66053;HTU21D;52833;45.112;39.556;2022-08-14T01:04:57;22.42;59.61
66053;HTU21D;52833;45.112;39.556;2022-08-14T01:07:25;22.39;59.64
66053;HTU21D;52833;45.112;39.556;2022-08-14T01:09:57;22.37;59.73
66053;HTU21D;52833;45.112;39.556;2022-08-14T01:12:26;22.34;59.70
66053;HTU21D;52833;45.112;39.556;2022-08-14T01:14:55;22.29;59.80
66053;HTU21D;52833;45.112;39.556;2022-08-14T01:17:23;22.25;59.93
66053;HTU21D;52833;45.112;39.556;2022-08-14T01:20:11;22.22;60.04
66053;HTU21D;52833;45.112;39.556;2022-08-14T01:22:56;22.17;60.21
66053;HTU21D;52833;45.112;39.556;2022-08-14T01:25:22;22.14;60.26
66053;HTU21D;52833;45.112;39.556;2022-08-14T01:27:49;22.11;60.38
66053;HTU21D;52833;45.112;39.556;2022-08-14T01:30:16;22.09;60.43
66053;HTU21D;52833;45.112;39.556;2022-08-14T01:32:47;22.08;60.50
66053;HTU21D;52833;45.112;39.556;2022-08-14T01:35:15;22.07;60.56
66053;HTU21D;52833;45.112;39.556;2022-08-14T01:37:44;22.06;60.58
66053;HTU21D;52833;45.112;39.556;2022-08-14T01:40:11;22.05;60.62
66053;HTU21D;52833;45.112;39.556;2022-08-14T01:42:41;22.05;60.67
66053;HTU21D;52833;45.112;39.556;2022-08-14T01:45:09;22.03;60.66
66053;HTU21D;52833;45.112;39.556;2022-08-14T01:47:39;22.03;60.66
66053;HTU21D;52833;45.112;39.556;2022-08-14T01:50:07;22.01;60.71
66053;HTU21D;52833;45.112;39.556;2022-08-14T01:52:36;21.99;60.76
66053;HTU21D;52833;45.112;39.556;2022-08-14T01:55:06;21.98;60.76
66053;HTU21D;52833;45.112;39.556;2022-08-14T01:57:34;21.96;60.80
66053;HTU21D;52833;45.112;39.556;2022-08-14T02:00:05;21.94;60.85
66053;HTU21D;52833;45.112;39.556;2022-08-14T02:02:35;21.93;60.86
66053;HTU21D;52833;45.112;39.556;2022-08-14T02:05:02;21.92;60.92
66053;HTU21D;52833;45.112;39.556;2022-08-14T02:07:28;21.92;60.96
66053;HTU21D;52833;45.112;39.556;2022-08-14T02:09:57;21.89;60.99
66053;HTU21D;52833;45.112;39.556;2022-08-14T02:12:24;21.90;61.00
66053;HTU21D;52833;45.112;39.556;2022-08-14T02:14:51;21.90;61.01
66053;HTU21D;52833;45.112;39.556;2022-08-14T02:17:17;21.89;61.03
66053;HTU21D;52833;45.112;39.556;2022-08-14T02:19:48;21.88;61.07
66053;HTU21D;52833;45.112;39.556;2022-08-14T02:22:15;21.89;61.09
66053;HTU21D;52833;45.112;39.556;2022-08-14T02:24:44;21.88;61.11
66053;HTU21D;52833;45.112;39.556;2022-08-14T02:27:11;21.88;61.12
66053;HTU21D;52833;45.112;39.556;2022-08-14T02:29:38;21.89;61.16
66053;HTU21D;52833;45.112;39.556;2022-08-14T02:32:06;21.89;61.16
66053;HTU21D;52833;45.112;39.556;2022-08-14T02:34:36;21.90;61.16
66053;HTU21D;52833;45.112;39.556;2022-08-14T02:37:09;21.92;61.19
66053;HTU21D;52833;45.112;39.556;2022-08-14T02:39:43;21.93;61.18
66053;HTU21D;52833;45.112;39.556;2022-08-14T02:42:16;21.94;61.17
66053;HTU21D;52833;45.112;39.556;2022-08-14T02:44:43;21.94;61.12
66053;HTU21D;52833;45.112;39.556;2022-08-14T02:47:10;21.96;61.05
66053;HTU21D;52833;45.112;39.556;2022-08-14T02:49:37;22.01;61.02
66053;HTU21D;52833;45.112;39.556;2022-08-14T02:52:05;22.01;61.03
66053;HTU21D;52833;45.112;39.556;2022-08-14T02:54:33;22.03;61.02
66053;HTU21D;52833;45.112;39.556;2022-08-14T02:57:01;22.04;60.99
66053;HTU21D;52833;45.112;39.556;2022-08-14T02:59:34;22.04;60.96
66053;HTU21D;52833;45.112;39.556;2022-08-14T03:02:02;22.04;60.97
66053;HTU21D;52833;45.112;39.556;2022-08-14T03:04:29;22.07;60.94
66053;HTU21D;52833;45.112;39.556;2022-08-14T03:06:56;22.09;60.94
66053;HTU21D;52833;45.112;39.556;2022-08-14T03:09:23;22.12;60.91
66053;HTU21D;52833;45.112;39.556;2022-08-14T03:11:50;22.18;60.90
66053;HTU21D;52833;45.112;39.556;2022-08-14T03:14:17;22.26;60.86
66053;HTU21D;52833;45.112;39.556;2022-08-14T03:16:45;22.37;60.74
66053;HTU21D;52833;45.112;39.556;2022-08-14T03:19:17;22.47;60.64
66053;HTU21D;52833;45.112;39.556;2022-08-14T03:21:44;22.61;60.38
66053;HTU21D;52833;45.112;39.556;2022-08-14T03:24:12;22.71;60.11
66053;HTU21D;52833;45.112;39.556;2022-08-14T03:26:43;22.83;59.95
66053;HTU21D;52833;45.112;39.556;2022-08-14T03:29:13;23.00;59.72
66053;HTU21D;52833;45.112;39.556;2022-08-14T03:31:41;23.16;59.37
66053;HTU21D;52833;45.112;39.556;2022-08-14T03:34:08;23.30;59.15
66053;HTU21D;52833;45.112;39.556;2022-08-14T03:36:37;23.37;58.95
66053;HTU21D;52833;45.112;39.556;2022-08-14T03:39:07;23.40;58.80
66053;HTU21D;52833;45.112;39.556;2022-08-14T03:41:34;23.40;58.72
66053;HTU21D;52833;45.112;39.556;2022-08-14T03:44:04;23.37;58.70
66053;HTU21D;52833;45.112;39.556;2022-08-14T03:46:36;23.35;58.64
66053;HTU21D;52833;45.112;39.556;2022-08-14T03:49:03;23.32;58.61
66053;HTU21D;52833;45.112;39.556;2022-08-14T03:51:31;23.29;58.65
66053;HTU21D;52833;45.112;39.556;2022-08-14T03:54:00;23.26;58.77
66053;HTU21D;52833;45.112;39.556;2022-08-14T03:56:29;23.25;58.84
66053;HTU21D;52833;45.112;39.556;2022-08-14T03:58:58;23.28;59.12
66053;HTU21D;52833;45.112;39.556;2022-08-14T04:01:28;23.40;59.35
66053;HTU21D;52833;45.112;39.556;2022-08-14T04:03:56;23.53;59.28
66053;HTU21D;52833;45.112;39.556;2022-08-14T04:06:33;23.72;59.11
66053;HTU21D;52833;45.112;39.556;2022-08-14T04:09:00;23.87;58.70
66053;HTU21D;52833;45.112;39.556;2022-08-14T04:11:27;24.02;58.27
66053;HTU21D;52833;45.112;39.556;2022-08-14T04:13:54;24.09;58.01
66053;HTU21D;52833;45.112;39.556;2022-08-14T04:16:21;24.16;57.80
66053;HTU21D;52833;45.112;39.556;2022-08-14T04:18:54;24.20;57.64
66053;HTU21D;52833;45.112;39.556;2022-08-14T04:21:23;24.24;57.73
66053;HTU21D;52833;45.112;39.556;2022-08-14T04:23:52;24.31;57.80
66053;HTU21D;52833;45.112;39.556;2022-08-14T04:26:22;24.46;57.70
66053;HTU21D;52833;45.112;39.556;2022-08-14T04:28:50;24.59;57.55
66053;HTU21D;52833;45.112;39.556;2022-08-14T04:31:18;24.75;57.39
66053;HTU21D;52833;45.112;39.556;2022-08-14T04:33:45;24.92;57.09
66053;HTU21D;52833;45.112;39.556;2022-08-14T04:36:13;25.08;56.96
66053;HTU21D;52833;45.112;39.556;2022-08-14T04:38:40;25.23;56.75
66053;HTU21D;52833;45.112;39.556;2022-08-14T04:41:28;25.44;56.56
66053;HTU21D;52833;45.112;39.556;2022-08-14T04:44:13;25.64;56.26
66053;HTU21D;52833;45.112;39.556;2022-08-14T04:46:39;25.78;56.03
66053;HTU21D;52833;45.112;39.556;2022-08-14T04:49:26;25.96;55.96
66053;HTU21D;52833;45.112;39.556;2022-08-14T04:51:54;26.16;55.69
66053;HTU21D;52833;45.112;39.556;2022-08-14T04:54:21;26.30;55.55
66053;HTU21D;52833;45.112;39.556;2022-08-14T04:56:53;26.49;55.45
66053;HTU21D;52833;45.112;39.556;2022-08-14T04:59:20;26.66;55.10
66053;HTU21D;52833;45.112;39.556;2022-08-14T05:01:47;26.83;54.91
66053;HTU21D;52833;45.112;39.556;2022-08-14T05:04:15;27.01;54.73
66053;HTU21D;52833;45.112;39.556;2022-08-14T05:06:43;27.21;54.37
66053;HTU21D;52833;45.112;39.556;2022-08-14T05:09:09;27.31;54.00
66053;HTU21D;52833;45.112;39.556;2022-08-14T05:11:36;27.42;53.91
66053;HTU21D;52833;45.112;39.556;2022-08-14T05:14:03;27.54;53.62
66053;HTU21D;52833;45.112;39.556;2022-08-14T05:16:30;27.65;53.44
66053;HTU21D;52833;45.112;39.556;2022-08-14T05:18:57;27.73;53.23
66053;HTU21D;52833;45.112;39.556;2022-08-14T05:21:23;27.82;53.07
66053;HTU21D;52833;45.112;39.556;2022-08-14T05:23:54;27.93;52.90
66053;HTU21D;52833;45.112;39.556;2022-08-14T05:26:21;28.04;52.88
66053;HTU21D;52833;45.112;39.556;2022-08-14T05:28:47;28.21;52.83
66053;HTU21D;52833;45.112;39.556;2022-08-14T05:31:16;28.38;52.61
66053;HTU21D;52833;45.112;39.556;2022-08-14T05:33:45;28.53;52.48
66053;HTU21D;52833;45.112;39.556;2022-08-14T05:36:13;28.63;52.31
66053;HTU21D;52833;45.112;39.556;2022-08-14T05:38:42;28.74;51.96
66053;HTU21D;52833;45.112;39.556;2022-08-14T05:41:17;28.82;51.79
66053;HTU21D;52833;45.112;39.556;2022-08-14T05:43:46;28.89;51.69
66053;HTU21D;52833;45.112;39.556;2022-08-14T05:46:15;28.99;51.31
66053;HTU21D;52833;45.112;39.556;2022-08-14T05:48:48;29.06;51.02
66053;HTU21D;52833;45.112;39.556;2022-08-14T05:51:15;29.15;51.00
66053;HTU21D;52833;45.112;39.556;2022-08-14T05:53:42;29.24;50.86
66053;HTU21D;52833;45.112;39.556;2022-08-14T05:56:09;29.39;50.53
66053;HTU21D;52833;45.112;39.556;2022-08-14T05:58:36;29.58;50.27
66053;HTU21D;52833;45.112;39.556;2022-08-14T06:01:03;29.77;49.84
66053;HTU21D;52833;45.112;39.556;2022-08-14T06:03:30;29.96;49.70
66053;HTU21D;52833;45.112;39.556;2022-08-14T06:05:57;30.09;49.39
66053;HTU21D;52833;45.112;39.556;2022-08-14T06:08:30;30.15;49.46
66053;HTU21D;52833;45.112;39.556;2022-08-14T06:11:00;30.27;49.55
66053;HTU21D;52833;45.112;39.556;2022-08-14T06:13:33;30.35;49.21
66053;HTU21D;52833;45.112;39.556;2022-08-14T06:16:00;30.45;49.32
66053;HTU21D;52833;45.112;39.556;2022-08-14T06:18:27;30.59;49.47
66053;HTU21D;52833;45.112;39.556;2022-08-14T06:20:53;30.78;49.08
66053;HTU21D;52833;45.112;39.556;2022-08-14T06:23:20;30.97;49.19
66053;HTU21D;52833;45.112;39.556;2022-08-14T06:25:47;31.20;48.99
66053;HTU21D;52833;45.112;39.556;2022-08-14T06:28:20;31.45;48.71
66053;HTU21D;52833;45.112;39.556;2022-08-14T06:30:48;31.67;47.95
66053;HTU21D;52833;45.112;39.556;2022-08-14T06:33:17;31.79;47.50
66053;HTU21D;52833;45.112;39.556;2022-08-14T06:35:45;31.85;47.53
66053;HTU21D;52833;45.112;39.556;2022-08-14T06:38:17;31.99;47.64
66053;HTU21D;52833;45.112;39.556;2022-08-14T06:40:48;32.20;47.09
66053;HTU21D;52833;45.112;39.556;2022-08-14T06:43:16;32.39;46.28
66053;HTU21D;52833;45.112;39.556;2022-08-14T06:45:45;32.54;46.05
66053;HTU21D;52833;45.112;39.556;2022-08-14T06:48:23;32.73;45.44
66053;HTU21D;52833;45.112;39.556;2022-08-14T06:50:51;32.86;45.22
66053;HTU21D;52833;45.112;39.556;2022-08-14T06:53:19;32.91;45.29
66053;HTU21D;52833;45.112;39.556;2022-08-14T06:55:46;32.96;44.92
66053;HTU21D;52833;45.112;39.556;2022-08-14T06:58:15;32.97;44.91
66053;HTU21D;52833;45.112;39.556;2022-08-14T07:00:43;33.02;45.15
66053;HTU21D;52833;45.112;39.556;2022-08-14T07:03:31;33.11;45.09
66053;HTU21D;52833;45.112;39.556;2022-08-14T07:06:17;33.25;44.55
66053;HTU21D;52833;45.112;39.556;2022-08-14T07:08:44;33.41;44.15
66053;HTU21D;52833;45.112;39.556;2022-08-14T07:11:11;33.53;43.68
66053;HTU21D;52833;45.112;39.556;2022-08-14T07:13:39;33.66;43.71
66053;HTU21D;52833;45.112;39.556;2022-08-14T07:16:05;33.82;43.69
66053;HTU21D;52833;45.112;39.556;2022-08-14T07:18:34;34.01;43.56
66053;HTU21D;52833;45.112;39.556;2022-08-14T07:21:03;34.18;43.03
66053;HTU21D;52833;45.112;39.556;2022-08-14T07:23:30;34.32;42.81
66053;HTU21D;52833;45.112;39.556;2022-08-14T07:25:59;34.39;42.58
66053;HTU21D;52833;45.112;39.556;2022-08-14T07:28:30;34.48;42.52
66053;HTU21D;52833;45.112;39.556;2022-08-14T07:30:59;34.60;42.03
66053;HTU21D;52833;45.112;39.556;2022-08-14T07:33:31;34.74;41.84
66053;HTU21D;52833;45.112;39.556;2022-08-14T07:35:59;34.89;42.03
66053;HTU21D;52833;45.112;39.556;2022-08-14T07:38:28;35.05;41.68
66053;HTU21D;52833;45.112;39.556;2022-08-14T07:40:55;35.22;41.36
66053;HTU21D;52833;45.112;39.556;2022-08-14T07:43:22;35.39;40.99
66053;HTU21D;52833;45.112;39.556;2022-08-14T07:45:49;35.56;40.68
66053;HTU21D;52833;45.112;39.556;2022-08-14T07:48:16;35.72;40.58
66053;HTU21D;52833;45.112;39.556;2022-08-14T07:50:44;35.84;40.15
66053;HTU21D;52833;45.112;39.556;2022-08-14T07:53:16;35.97;40.05
66053;HTU21D;52833;45.112;39.556;2022-08-14T07:55:43;36.07;39.86
66053;HTU21D;52833;45.112;39.556;2022-08-14T07:58:13;36.19;39.52
66053;HTU21D;52833;45.112;39.556;2022-08-14T08:00:39;36.28;39.43
66053;HTU21D;52833;45.112;39.556;2022-08-14T08:03:09;36.31;39.49
66053;HTU21D;52833;45.112;39.556;2022-08-14T08:05:37;36.29;39.18
66053;HTU21D;52833;45.112;39.556;2022-08-14T08:08:06;36.24;39.16
66053;HTU21D;52833;45.112;39.556;2022-08-14T08:10:34;36.23;39.09
66053;HTU21D;52833;45.112;39.556;2022-08-14T08:13:12;36.28;38.98
66053;HTU21D;52833;45.112;39.556;2022-08-14T08:18:09;36.33;38.67
66053;HTU21D;52833;45.112;39.556;2022-08-14T08:20:40;36.38;38.36
66053;HTU21D;52833;45.112;39.556;2022-08-14T08:23:08;36.42;38.45
66053;HTU21D;52833;45.112;39.556;2022-08-14T08:25:37;36.46;38.45
66053;HTU21D;52833;45.112;39.556;2022-08-14T08:28:07;36.47;38.33
66053;HTU21D;52833;45.112;39.556;2022-08-14T08:30:39;36.47;38.36
66053;HTU21D;52833;45.112;39.556;2022-08-14T08:33:07;36.53;38.40
66053;HTU21D;52833;45.112;39.556;2022-08-14T08:35:36;36.61;37.98
66053;HTU21D;52833;45.112;39.556;2022-08-14T08:38:12;36.68;37.94
66053;HTU21D;52833;45.112;39.556;2022-08-14T08:40:43;36.68;37.85
66053;HTU21D;52833;45.112;39.556;2022-08-14T08:43:33;36.72;37.93
66053;HTU21D;52833;45.112;39.556;2022-08-14T08:46:09;36.82;37.96
66053;HTU21D;52833;45.112;39.556;2022-08-14T08:48:50;36.91;38.01
66053;HTU21D;52833;45.112;39.556;2022-08-14T08:51:23;37.02;37.88
66053;HTU21D;52833;45.112;39.556;2022-08-14T08:56:48;37.21;37.43
66053;HTU21D;52833;45.112;39.556;2022-08-14T09:01:57;37.33;37.35
66053;HTU21D;52833;45.112;39.556;2022-08-14T09:04:29;37.49;37.06
66053;HTU21D;52833;45.112;39.556;2022-08-14T09:06:56;37.57;37.08
66053;HTU21D;52833;45.112;39.556;2022-08-14T09:09:28;37.64;36.98
66053;HTU21D;52833;45.112;39.556;2022-08-14T09:11:57;37.70;36.60
66053;HTU21D;52833;45.112;39.556;2022-08-14T09:14:27;37.70;36.23
66053;HTU21D;52833;45.112;39.556;2022-08-14T09:16:57;37.71;36.34
66053;HTU21D;52833;45.112;39.556;2022-08-14T09:19:26;37.79;35.83
66053;HTU21D;52833;45.112;39.556;2022-08-14T09:21:53;37.85;35.55
66053;HTU21D;52833;45.112;39.556;2022-08-14T09:24:21;37.85;35.34
66053;HTU21D;52833;45.112;39.556;2022-08-14T09:26:48;37.84;35.56
66053;HTU21D;52833;45.112;39.556;2022-08-14T09:29:16;37.90;35.61
66053;HTU21D;52833;45.112;39.556;2022-08-14T09:31:45;38.01;35.55
66053;HTU21D;52833;45.112;39.556;2022-08-14T09:34:52;38.12;35.50
66053;HTU21D;52833;45.112;39.556;2022-08-14T09:40:46;38.53;34.92
66053;HTU21D;52833;45.112;39.556;2022-08-14T09:46:27;38.91;33.80
66053;HTU21D;52833;45.112;39.556;2022-08-14T09:49:01;39.08;33.41
66053;HTU21D;52833;45.112;39.556;2022-08-14T09:51:30;39.25;33.58
66053;HTU21D;52833;45.112;39.556;2022-08-14T09:54:01;39.39;33.20
66053;HTU21D;52833;45.112;39.556;2022-08-14T09:56:45;39.52;33.32
66053;HTU21D;52833;45.112;39.556;2022-08-14T09:59:14;39.61;33.18
66053;HTU21D;52833;45.112;39.556;2022-08-14T10:01:43;39.61;32.56
66053;HTU21D;52833;45.112;39.556;2022-08-14T10:04:24;39.69;32.62
66053;HTU21D;52833;45.112;39.556;2022-08-14T10:06:53;39.77;32.40
66053;HTU21D;52833;45.112;39.556;2022-08-14T10:09:20;39.82;32.35
66053;HTU21D;52833;45.112;39.556;2022-08-14T10:11:55;39.88;32.22
66053;HTU21D;52833;45.112;39.556;2022-08-14T10:14:26;39.99;32.09
66053;HTU21D;52833;45.112;39.556;2022-08-14T10:16:56;40.13;31.63
66053;HTU21D;52833;45.112;39.556;2022-08-14T10:19:26;40.11;31.35
66053;HTU21D;52833;45.112;39.556;2022-08-14T10:21:59;39.95;31.28
66053;HTU21D;52833;45.112;39.556;2022-08-14T10:24:29;39.85;31.33
66053;HTU21D;52833;45.112;39.556;2022-08-14T10:26:59;39.83;31.54
66053;HTU21D;52833;45.112;39.556;2022-08-14T10:29:31;39.89;31.54
66053;HTU21D;52833;45.112;39.556;2022-08-14T10:31:58;40.02;31.50
66053;HTU21D;52833;45.112;39.556;2022-08-14T10:34:36;40.16;31.39
66053;HTU21D;52833;45.112;39.556;2022-08-14T10:37:10;40.24;31.23
66053;HTU21D;52833;45.112;39.556;2022-08-14T10:39:39;40.28;31.01
66053;HTU21D;52833;45.112;39.556;2022-08-14T10:42:12;40.23;30.69
66053;HTU21D;52833;45.112;39.556;2022-08-14T10:44:42;40.22;30.94
66053;HTU21D;52833;45.112;39.556;2022-08-14T10:47:14;40.26;30.47
66053;HTU21D;52833;45.112;39.556;2022-08-14T10:49:59;40.25;30.39
66053;HTU21D;52833;45.112;39.556;2022-08-14T10:52:29;40.21;30.40
66053;HTU21D;52833;45.112;39.556;2022-08-14T10:55:15;40.19;30.47
66053;HTU21D;52833;45.112;39.556;2022-08-14T10:57:48;40.16;30.22
66053;HTU21D;52833;45.112;39.556;2022-08-14T11:00:20;40.09;30.29
66053;HTU21D;52833;45.112;39.556;2022-08-14T11:03:09;40.10;30.59
66053;HTU21D;52833;45.112;39.556;2022-08-14T11:05:44;40.21;30.58
66053;HTU21D;52833;45.112;39.556;2022-08-14T11:08:12;40.28;30.46
66053;HTU21D;52833;45.112;39.556;2022-08-14T11:10:46;40.43;30.74
66053;HTU21D;52833;45.112;39.556;2022-08-14T11:13:21;40.63;30.50
66053;HTU21D;52833;45.112;39.556;2022-08-14T11:15:48;40.76;29.97
66053;HTU21D;52833;45.112;39.556;2022-08-14T11:18:16;40.85;29.66
66053;HTU21D;52833;45.112;39.556;2022-08-14T11:20:54;40.90;29.61
66053;HTU21D;52833;45.112;39.556;2022-08-14T11:23:31;41.02;29.42
66053;HTU21D;52833;45.112;39.556;2022-08-14T11:25:59;41.17;29.48
66053;HTU21D;52833;45.112;39.556;2022-08-14T11:28:31;41.29;29.16
66053;HTU21D;52833;45.112;39.556;2022-08-14T11:30:59;41.29;28.87
66053;HTU21D;52833;45.112;39.556;2022-08-14T11:33:27;41.11;28.63
66053;HTU21D;52833;45.112;39.556;2022-08-14T11:36:02;40.84;28.70
66053;HTU21D;52833;45.112;39.556;2022-08-14T11:38:41;40.59;29.28
66053;HTU21D;52833;45.112;39.556;2022-08-14T11:41:09;40.27;29.19
66053;HTU21D;52833;45.112;39.556;2022-08-14T11:43:44;39.94;29.39
66053;HTU21D;52833;45.112;39.556;2022-08-14T11:46:11;39.58;29.46
66053;HTU21D;52833;45.112;39.556;2022-08-14T11:48:49;39.25;29.61
66053;HTU21D;52833;45.112;39.556;2022-08-14T11:51:19;39.04;30.19
66053;HTU21D;52833;45.112;39.556;2022-08-14T11:53:50;38.89;30.64
66053;HTU21D;52833;45.112;39.556;2022-08-14T11:56:22;38.76;30.62
66053;HTU21D;52833;45.112;39.556;2022-08-14T11:58:53;38.59;30.59
66053;HTU21D;52833;45.112;39.556;2022-08-14T12:01:28;38.46;30.90
66053;HTU21D;52833;45.112;39.556;2022-08-14T12:04:17;38.34;31.00
66053;HTU21D;52833;45.112;39.556;2022-08-14T12:06:54;38.28;31.03
66053;HTU21D;52833;45.112;39.556;2022-08-14T12:09:31;38.23;31.42
66053;HTU21D;52833;45.112;39.556;2022-08-14T12:11:59;38.26;31.39
66053;HTU21D;52833;45.112;39.556;2022-08-14T12:14:26;38.29;31.54
66053;HTU21D;52833;45.112;39.556;2022-08-14T12:17:07;38.33;31.59
66053;HTU21D;52833;45.112;39.556;2022-08-14T12:19:45;38.32;31.19
66053;HTU21D;52833;45.112;39.556;2022-08-14T12:22:11;38.22;31.31
66053;HTU21D;52833;45.112;39.556;2022-08-14T12:24:41;38.10;31.52
66053;HTU21D;52833;45.112;39.556;2022-08-14T12:27:10;38.02;31.57
66053;HTU21D;52833;45.112;39.556;2022-08-14T12:29:49;37.91;31.67
66053;HTU21D;52833;45.112;39.556;2022-08-14T12:32:16;37.76;31.82
66053;HTU21D;52833;45.112;39.556;2022-08-14T12:34:51;37.63;32.00
66053;HTU21D;52833;45.112;39.556;2022-08-14T12:37:18;37.60;32.36
66053;HTU21D;52833;45.112;39.556;2022-08-14T12:39:55;37.58;32.39
66053;HTU21D;52833;45.112;39.556;2022-08-14T12:42:36;37.47;32.37
66053;HTU21D;52833;45.112;39.556;2022-08-14T12:45:03;37.37;32.28
66053;HTU21D;52833;45.112;39.556;2022-08-14T12:47:30;37.25;32.24
66053;HTU21D;52833;45.112;39.556;2022-08-14T12:49:57;37.11;32.15
66053;HTU21D;52833;45.112;39.556;2022-08-14T12:52:38;36.95;32.42
66053;HTU21D;52833;45.112;39.556;2022-08-14T12:55:13;36.83;32.56
66053;HTU21D;52833;45.112;39.556;2022-08-14T12:57:45;36.75;32.72
66053;HTU21D;52833;45.112;39.556;2022-08-14T13:00:18;36.68;32.83
66053;HTU21D;52833;45.112;39.556;2022-08-14T13:02:47;36.61;32.89
66053;HTU21D;52833;45.112;39.556;2022-08-14T13:05:25;36.57;32.80
66053;HTU21D;52833;45.112;39.556;2022-08-14T13:07:52;36.53;33.05
66053;HTU21D;52833;45.112;39.556;2022-08-14T13:10:20;36.54;33.17
66053;HTU21D;52833;45.112;39.556;2022-08-14T13:12:48;36.55;33.22
66053;HTU21D;52833;45.112;39.556;2022-08-14T13:15:16;36.55;33.07
66053;HTU21D;52833;45.112;39.556;2022-08-14T13:17:49;36.53;33.01
66053;HTU21D;52833;45.112;39.556;2022-08-14T13:20:22;36.49;32.79
66053;HTU21D;52833;45.112;39.556;2022-08-14T13:22:49;36.43;32.99
66053;HTU21D;52833;45.112;39.556;2022-08-14T13:25:18;36.36;32.95
66053;HTU21D;52833;45.112;39.556;2022-08-14T13:27:50;36.25;32.83
66053;HTU21D;52833;45.112;39.556;2022-08-14T13:30:17;36.16;33.05
66053;HTU21D;52833;45.112;39.556;2022-08-14T13:32:46;36.11;33.22
66053;HTU21D;52833;45.112;39.556;2022-08-14T13:35:14;36.04;33.23
66053;HTU21D;52833;45.112;39.556;2022-08-14T13:37:43;35.94;33.47
66053;HTU21D;52833;45.112;39.556;2022-08-14T13:40:11;35.84;33.68
66053;HTU21D;52833;45.112;39.556;2022-08-14T13:42:42;35.77;33.86
66053;HTU21D;52833;45.112;39.556;2022-08-14T13:45:10;35.69;34.07
66053;HTU21D;52833;45.112;39.556;2022-08-14T13:47:37;35.64;34.34
66053;HTU21D;52833;45.112;39.556;2022-08-14T13:50:07;35.57;34.52
66053;HTU21D;52833;45.112;39.556;2022-08-14T13:52:45;35.50;34.63
66053;HTU21D;52833;45.112;39.556;2022-08-14T13:55:25;35.38;34.60
66053;HTU21D;52833;45.112;39.556;2022-08-14T13:57:58;35.25;34.75
66053;HTU21D;52833;45.112;39.556;2022-08-14T14:00:26;35.16;35.02
66053;HTU21D;52833;45.112;39.556;2022-08-14T14:02:54;35.06;35.54
66053;HTU21D;52833;45.112;39.556;2022-08-14T14:05:24;34.97;36.04
66053;HTU21D;52833;45.112;39.556;2022-08-14T14:07:52;34.91;36.40
66053;HTU21D;52833;45.112;39.556;2022-08-14T14:10:20;34.86;36.85
66053;HTU21D;52833;45.112;39.556;2022-08-14T14:12:48;34.84;37.00
66053;HTU21D;52833;45.112;39.556;2022-08-14T14:15:19;34.79;37.27
66053;HTU21D;52833;45.112;39.556;2022-08-14T14:17:47;34.70;37.95
66053;HTU21D;52833;45.112;39.556;2022-08-14T14:20:16;34.62;38.67
66053;HTU21D;52833;45.112;39.556;2022-08-14T14:22:46;34.52;39.52
66053;HTU21D;52833;45.112;39.556;2022-08-14T14:25:16;34.41;39.91
66053;HTU21D;52833;45.112;39.556;2022-08-14T14:27:44;34.32;40.06
66053;HTU21D;52833;45.112;39.556;2022-08-14T14:30:13;34.23;40.28
66053;HTU21D;52833;45.112;39.556;2022-08-14T14:32:41;34.15;40.42
66053;HTU21D;52833;45.112;39.556;2022-08-14T14:35:16;34.07;40.94
66053;HTU21D;52833;45.112;39.556;2022-08-14T14:37:46;33.99;41.42
66053;HTU21D;52833;45.112;39.556;2022-08-14T14:40:14;33.91;42.70
66053;HTU21D;52833;45.112;39.556;2022-08-14T14:42:48;33.81;43.53
66053;HTU21D;52833;45.112;39.556;2022-08-14T14:45:20;33.74;44.14
66053;HTU21D;52833;45.112;39.556;2022-08-14T14:47:52;33.65;44.51
66053;HTU21D;52833;45.112;39.556;2022-08-14T14:50:21;33.59;44.64
66053;HTU21D;52833;45.112;39.556;2022-08-14T14:52:49;33.52;44.77
66053;HTU21D;52833;45.112;39.556;2022-08-14T14:55:17;33.45;45.19
66053;HTU21D;52833;45.112;39.556;2022-08-14T14:57:45;33.41;45.61
66053;HTU21D;52833;45.112;39.556;2022-08-14T15:00:15;33.36;45.91
66053;HTU21D;52833;45.112;39.556;2022-08-14T15:02:44;33.31;46.00
66053;HTU21D;52833;45.112;39.556;2022-08-14T15:05:14;33.25;46.22
66053;HTU21D;52833;45.112;39.556;2022-08-14T15:07:45;33.15;46.38
66053;HTU21D;52833;45.112;39.556;2022-08-14T15:10:14;33.05;46.43
66053;HTU21D;52833;45.112;39.556;2022-08-14T15:12:41;32.96;46.47
66053;HTU21D;52833;45.112;39.556;2022-08-14T15:15:10;32.85;46.77
66053;HTU21D;52833;45.112;39.556;2022-08-14T15:17:38;32.73;46.83
66053;HTU21D;52833;45.112;39.556;2022-08-14T15:20:08;32.64;46.93
66053;HTU21D;52833;45.112;39.556;2022-08-14T15:22:37;32.58;46.96
66053;HTU21D;52833;45.112;39.556;2022-08-14T15:25:06;32.50;47.03
66053;HTU21D;52833;45.112;39.556;2022-08-14T15:27:36;32.43;47.18
66053;HTU21D;52833;45.112;39.556;2022-08-14T15:30:08;32.38;47.31
66053;HTU21D;52833;45.112;39.556;2022-08-14T15:32:35;32.30;47.48
66053;HTU21D;52833;45.112;39.556;2022-08-14T15:35:02;32.25;47.80